Time;durP1;ratioP1;P1;durP2;ratioP2;P2;SDS_P1;SDS_P2;PMS_P1;PMS_P2;Temp;Humidity;BMP_temperature;BMP_pressure;BME280_temperature;BME280_humidity;BME280_pressure;Samples;Min_cycle;Max_cycle;Signal;HPM_P1;HPM_P2
2022/07/01 00:01:31;;;;;;;5.90;1.65;;;22.90;71.60;;;;;;5006321;28;20192;-71
2022/07/01 00:03:57;;;;;;;1.42;1.42;;;22.90;71.70;;;;;;5005513;28;20180;-71
2022/07/01 00:06:23;;;;;;;1.38;1.38;;;22.90;71.60;;;;;;5011793;28;20314;-71
2022/07/01 00:08:48;;;;;;;3.40;1.35;;;22.90;71.80;;;;;;5014541;28;20184;-71
2022/07/01 00:11:15;;;;;;;2.85;2.40;;;22.90;72.00;;;;;;5009917;28;20184;-71
2022/07/01 00:13:40;;;;;;;2.10;2.10;;;22.80;72.80;;;;;;5008796;28;20651;-71
2022/07/01 00:16:06;;;;;;;1.73;1.73;;;22.80;72.70;;;;;;5013876;28;20193;-71
2022/07/01 00:18:32;;;;;;;1.95;1.85;;;22.80;72.30;;;;;;5006546;28;20181;-71
2022/07/01 00:20:57;;;;;;;1.52;1.52;;;22.80;72.30;;;;;;5010159;28;20188;-71
2022/07/01 00:23:23;;;;;;;1.58;1.58;;;22.80;72.40;;;;;;5010632;28;20231;-71
2022/07/01 00:25:49;;;;;;;1.40;1.40;;;22.80;73.00;;;;;;5006606;28;20237;-71
2022/07/01 00:28:14;;;;;;;2.22;2.03;;;22.80;72.60;;;;;;5008954;28;20192;-71
2022/07/01 00:30:40;;;;;;;1.20;1.20;;;22.80;73.00;;;;;;5013028;28;20184;-71
2022/07/01 00:33:06;;;;;;;1.65;1.63;;;22.80;72.40;;;;;;5007787;28;20192;-71
2022/07/01 00:35:33;;;;;;;1.85;1.80;;;22.70;72.80;;;;;;5004161;28;20275;-71
2022/07/01 00:37:58;;;;;;;1.38;1.38;;;22.70;72.60;;;;;;5010978;28;20263;-72
2022/07/01 00:40:24;;;;;;;1.50;1.50;;;22.60;72.40;;;;;;5014320;28;20211;-72
2022/07/01 00:42:50;;;;;;;3.35;1.88;;;22.60;73.10;;;;;;5013678;28;20180;-71
2022/07/01 00:45:16;;;;;;;1.77;1.67;;;22.60;73.50;;;;;;5005049;28;20745;-71
2022/07/01 00:47:43;;;;;;;1.73;1.45;;;22.60;73.40;;;;;;5009783;28;20180;-71
2022/07/01 00:50:12;;;;;;;1.55;1.55;;;22.60;74.10;;;;;;5017655;28;20191;-72
2022/07/01 00:52:42;;;;;;;1.30;1.30;;;22.50;72.80;;;;;;5009596;28;20642;-71
2022/07/01 00:55:13;;;;;;;1.80;1.75;;;22.50;72.80;;;;;;5013109;28;20858;-71
2022/07/01 00:57:41;;;;;;;2.20;1.60;;;22.50;72.90;;;;;;5011456;28;20184;-70
2022/07/01 01:00:13;;;;;;;1.67;1.67;;;22.50;72.70;;;;;;5007673;28;20189;-72
2022/07/01 01:02:39;;;;;;;1.40;1.40;;;22.50;72.60;;;;;;5002324;28;20180;-72
2022/07/01 01:05:07;;;;;;;1.45;1.40;;;22.50;72.60;;;;;;5012086;28;20208;-72
2022/07/01 01:07:33;;;;;;;1.48;1.48;;;22.40;72.60;;;;;;5013384;28;20233;-72
2022/07/01 01:10:00;;;;;;;2.10;1.90;;;22.40;72.80;;;;;;5017348;28;20716;-71
2022/07/01 01:12:26;;;;;;;3.50;1.88;;;22.40;73.10;;;;;;5011304;28;20594;-71
2022/07/01 01:14:52;;;;;;;1.95;1.95;;;22.40;74.60;;;;;;5008194;28;20192;-71
2022/07/01 01:17:19;;;;;;;1.90;1.77;;;22.40;74.20;;;;;;5008122;28;20181;-71
2022/07/01 01:19:45;;;;;;;2.78;2.03;;;22.40;74.80;;;;;;5014332;28;20536;-72
2022/07/01 01:22:15;;;;;;;1.83;1.83;;;22.40;74.20;;;;;;5007228;28;20192;-71
2022/07/01 01:24:42;;;;;;;2.28;2.08;;;22.30;74.00;;;;;;5015745;28;20691;-71
2022/07/01 01:27:08;;;;;;;1.70;1.70;;;22.30;74.20;;;;;;5014036;28;20181;-72
2022/07/01 01:29:37;;;;;;;3.13;2.13;;;22.30;74.60;;;;;;5008416;28;20688;-72
2022/07/01 01:32:05;;;;;;;2.20;2.20;;;22.20;74.70;;;;;;5007781;28;20750;-71
2022/07/01 01:34:38;;;;;;;2.65;1.85;;;22.20;74.80;;;;;;5011522;28;20696;-71
2022/07/01 01:37:05;;;;;;;4.10;2.22;;;22.20;75.10;;;;;;5004369;28;20223;-72
2022/07/01 01:39:31;;;;;;;2.10;2.00;;;22.20;74.70;;;;;;5016474;28;20176;-71
2022/07/01 01:41:57;;;;;;;2.00;1.98;;;22.10;74.60;;;;;;5018184;28;20199;-71
2022/07/01 01:44:23;;;;;;;2.33;1.92;;;22.10;75.80;;;;;;5008928;28;20189;-72
2022/07/01 01:46:48;;;;;;;2.40;2.15;;;22.10;75.20;;;;;;5010864;28;20677;-71
2022/07/01 01:49:14;;;;;;;2.33;2.22;;;22.00;74.60;;;;;;5015925;28;20196;-71
2022/07/01 01:51:40;;;;;;;2.38;2.28;;;22.00;74.80;;;;;;5011456;28;20231;-72
2022/07/01 01:54:06;;;;;;;3.78;2.15;;;22.00;74.90;;;;;;5017657;28;20700;-71
2022/07/01 01:56:32;;;;;;;2.55;2.45;;;22.00;75.60;;;;;;5008492;28;20177;-71
2022/07/01 01:58:59;;;;;;;2.78;2.72;;;21.90;75.80;;;;;;5004458;28;21010;-71
2022/07/01 02:01:25;;;;;;;2.88;2.78;;;21.90;76.60;;;;;;5008003;28;20192;-71
2022/07/01 02:03:52;;;;;;;4.45;2.22;;;21.90;76.80;;;;;;5002418;28;20177;-71
2022/07/01 02:06:19;;;;;;;3.28;2.97;;;21.90;76.70;;;;;;5010538;28;20223;-71
2022/07/01 02:08:45;;;;;;;2.83;2.60;;;21.80;76.90;;;;;;5010210;28;20176;-71
2022/07/01 02:11:11;;;;;;;2.88;2.78;;;21.80;77.10;;;;;;5012520;28;20682;-71
2022/07/01 02:13:37;;;;;;;2.95;2.83;;;21.70;77.10;;;;;;5012637;28;20271;-72
2022/07/01 02:16:04;;;;;;;3.30;2.75;;;21.70;77.10;;;;;;5013338;28;20265;-72
2022/07/01 02:18:32;;;;;;;3.22;2.58;;;21.60;76.90;;;;;;5009336;28;20192;-71
2022/07/01 02:20:58;;;;;;;2.92;2.70;;;21.60;77.10;;;;;;5017205;28;20246;-71
2022/07/01 02:23:23;;;;;;;2.53;2.42;;;21.60;76.80;;;;;;5009072;28;20784;-71
2022/07/01 02:25:49;;;;;;;2.42;2.33;;;21.50;76.20;;;;;;5015001;28;20349;-72
2022/07/01 02:28:16;;;;;;;3.00;2.80;;;21.50;77.30;;;;;;5014334;28;20180;-70
2022/07/01 02:30:42;;;;;;;3.13;2.90;;;21.40;76.60;;;;;;5009211;28;20200;-71
2022/07/01 02:33:08;;;;;;;3.00;2.80;;;21.40;76.00;;;;;;5010956;28;20767;-71
2022/07/01 02:35:37;;;;;;;2.83;2.72;;;21.30;77.50;;;;;;5012631;28;20188;-70
2022/07/01 02:38:04;;;;;;;3.13;3.03;;;21.30;75.80;;;;;;5009643;28;20246;-71
2022/07/01 02:40:30;;;;;;;3.08;2.95;;;21.30;76.70;;;;;;5006119;28;20179;-72
2022/07/01 02:42:56;;;;;;;4.45;3.20;;;21.30;77.70;;;;;;5013198;28;20180;-72
2022/07/01 02:45:22;;;;;;;3.00;2.90;;;21.20;77.30;;;;;;5011911;28;20282;-72
2022/07/01 02:47:47;;;;;;;2.65;2.55;;;21.20;76.80;;;;;;5013668;28;20372;-71
2022/07/01 02:50:14;;;;;;;2.92;2.83;;;21.20;76.90;;;;;;5003745;28;20939;-70
2022/07/01 02:52:41;;;;;;;2.58;2.38;;;21.10;76.40;;;;;;5009849;28;20187;-71
2022/07/01 02:55:10;;;;;;;2.80;2.70;;;21.20;78.20;;;;;;5011870;28;20193;-71
2022/07/01 02:57:37;;;;;;;2.28;2.22;;;21.20;78.20;;;;;;5012762;28;20709;-71
2022/07/01 03:00:10;;;;;;;2.20;2.17;;;21.10;78.40;;;;;;5017329;28;20177;-70
2022/07/01 03:02:36;;;;;;;2.55;2.28;;;21.10;78.10;;;;;;5008753;28;20263;-71
2022/07/01 03:05:03;;;;;;;3.15;2.95;;;21.10;78.20;;;;;;5013291;28;20699;-72
2022/07/01 03:07:29;;;;;;;4.45;2.85;;;21.00;78.20;;;;;;5013827;28;20732;-71
2022/07/01 03:09:55;;;;;;;2.78;2.58;;;21.00;77.70;;;;;;5017315;28;20292;-70
2022/07/01 03:12:34;;;;;;;2.90;2.50;;;20.90;77.60;;;;;;5005517;28;20277;-72
2022/07/01 03:15:08;;;;;;;5.03;2.78;;;20.90;78.80;;;;;;5017952;28;20189;-72
2022/07/01 03:17:35;;;;;;;3.00;2.90;;;20.90;78.30;;;;;;5008251;28;20581;-72
2022/07/01 03:20:01;;;;;;;3.53;2.65;;;20.90;78.40;;;;;;5009882;28;20267;-71
2022/07/01 03:22:29;;;;;;;3.05;2.63;;;20.90;79.50;;;;;;5010804;28;20180;-71
2022/07/01 03:24:55;;;;;;;3.90;2.28;;;20.90;79.30;;;;;;5004656;28;20212;-72
2022/07/01 03:27:22;;;;;;;2.85;2.72;;;20.90;79.30;;;;;;5014241;28;20195;-71
2022/07/01 03:29:48;;;;;;;2.63;2.53;;;20.90;79.10;;;;;;5013050;28;20239;-71
2022/07/01 03:32:13;;;;;;;2.88;2.42;;;20.90;79.90;;;;;;5008841;28;20260;-72
2022/07/01 03:34:41;;;;;;;3.08;2.63;;;20.90;79.20;;;;;;5021277;28;20266;-72
2022/07/01 03:37:08;;;;;;;2.72;2.63;;;20.90;78.70;;;;;;5012604;28;20195;-71
2022/07/01 03:39:35;;;;;;;2.42;2.33;;;20.90;79.60;;;;;;5014319;28;20176;-71
2022/07/01 03:42:03;;;;;;;2.53;2.42;;;20.90;79.40;;;;;;5011993;28;20180;-71
2022/07/01 03:44:29;;;;;;;4.85;2.63;;;20.90;79.00;;;;;;5013814;28;20262;-71
2022/07/01 03:46:55;;;;;;;3.00;2.80;;;20.90;79.70;;;;;;5009820;28;20435;-71
2022/07/01 03:49:21;;;;;;;3.35;2.58;;;20.90;80.70;;;;;;5013726;28;20183;-70
2022/07/01 03:51:47;;;;;;;2.92;2.72;;;20.90;80.10;;;;;;5012838;28;20184;-71
2022/07/01 03:54:32;;;;;;;2.53;2.42;;;20.90;79.40;;;;;;5016194;28;20184;-71
2022/07/01 03:56:58;;;;;;;2.83;2.72;;;20.90;80.10;;;;;;5007918;28;20176;-71
2022/07/01 03:59:25;;;;;;;2.83;2.72;;;20.90;79.90;;;;;;5015943;28;20185;-71
2022/07/01 04:01:52;;;;;;;2.80;2.70;;;20.90;79.80;;;;;;5005560;28;20865;-71
2022/07/01 04:04:18;;;;;;;3.17;2.78;;;20.90;79.90;;;;;;5017681;28;20176;-71
2022/07/01 04:06:44;;;;;;;2.60;2.50;;;21.00;80.10;;;;;;5013230;28;20224;-71
2022/07/01 04:09:12;;;;;;;2.67;2.58;;;21.00;80.10;;;;;;5012190;28;20188;-71
2022/07/01 04:11:38;;;;;;;2.83;2.25;;;21.10;79.80;;;;;;5007364;28;20586;-71
2022/07/01 04:14:04;;;;;;;3.40;3.10;;;21.10;79.60;;;;;;5010608;28;20184;-71
2022/07/01 04:16:30;;;;;;;2.42;2.33;;;21.10;79.30;;;;;;5012042;28;20180;-72
2022/07/01 04:18:56;;;;;;;2.38;2.28;;;21.10;79.20;;;;;;5009410;28;20793;-72
2022/07/01 04:24:07;;;;;;;2.47;2.10;;;21.20;79.30;;;;;;5012775;28;20183;-72
2022/07/01 04:26:32;;;;;;;2.65;2.55;;;21.20;78.90;;;;;;5011201;28;20212;-70
2022/07/01 04:28:58;;;;;;;2.42;2.30;;;21.20;78.90;;;;;;5002909;28;20203;-71
2022/07/01 04:31:24;;;;;;;2.85;2.75;;;21.30;78.90;;;;;;5009514;28;20185;-71
2022/07/01 04:33:50;;;;;;;3.00;2.78;;;21.30;79.40;;;;;;5010000;28;20196;-75
2022/07/01 04:36:17;;;;;;;3.67;3.38;;;21.40;79.70;;;;;;5008963;28;20185;-77
2022/07/01 04:38:42;;;;;;;3.65;3.45;;;21.40;79.70;;;;;;5006303;28;20177;-75
2022/07/01 04:43:52;;;;;;;3.60;3.28;;;21.50;79.50;;;;;;5010367;28;20234;-75
2022/07/01 04:46:18;;;;;;;3.40;2.70;;;21.50;79.00;;;;;;5016710;28;20231;-75
2022/07/01 04:48:43;;;;;;;3.60;3.33;;;21.60;78.90;;;;;;5012352;28;20177;-73
2022/07/01 04:51:09;;;;;;;4.10;3.20;;;21.60;79.90;;;;;;5010635;28;20195;-74
2022/07/01 04:53:35;;;;;;;2.35;2.35;;;21.60;78.70;;;;;;5011878;28;20201;-73
2022/07/01 04:56:01;;;;;;;3.45;3.28;;;21.60;79.10;;;;;;5013582;28;20262;-75
2022/07/01 04:58:26;;;;;;;3.80;2.80;;;21.70;78.90;;;;;;5018959;28;20231;-76
2022/07/01 05:00:52;;;;;;;2.60;2.42;;;21.70;79.70;;;;;;5018003;28;20190;-76
2022/07/01 05:03:18;;;;;;;3.92;3.22;;;21.80;79.30;;;;;;5011709;28;20204;-73
2022/07/01 05:05:44;;;;;;;4.72;2.70;;;21.80;79.90;;;;;;5013698;28;20205;-75
2022/07/01 05:08:09;;;;;;;3.08;2.90;;;21.80;79.80;;;;;;5016560;28;20180;-75
2022/07/01 05:10:35;;;;;;;3.15;3.05;;;21.90;79.20;;;;;;5013217;28;20272;-74
2022/07/01 05:13:01;;;;;;;3.58;3.00;;;21.90;79.10;;;;;;5006933;28;20182;-75
2022/07/01 05:15:27;;;;;;;3.72;3.42;;;21.90;79.40;;;;;;5015210;28;20185;-76
2022/07/01 05:23:22;;;;;;;4.63;3.63;;;22.10;79.70;;;;;;4971865;28;21115;-70
2022/07/01 05:25:48;;;;;;;3.80;3.50;;;22.10;80.00;;;;;;4965690;28;20271;-73
2022/07/01 05:28:14;;;;;;;3.47;3.22;;;22.20;79.80;;;;;;4971382;28;20697;-73
2022/07/01 05:30:40;;;;;;;3.70;3.35;;;22.20;79.40;;;;;;4964653;28;20182;-72
2022/07/01 05:33:06;;;;;;;7.60;3.80;;;22.30;79.70;;;;;;4973099;28;20758;-72
2022/07/01 05:35:31;;;;;;;3.10;3.00;;;22.30;79.20;;;;;;4971682;28;20648;-72
2022/07/01 05:37:58;;;;;;;3.83;3.47;;;22.30;78.80;;;;;;4972095;28;20696;-72
2022/07/01 05:40:25;;;;;;;4.55;3.45;;;22.30;79.10;;;;;;4971038;28;20683;-72
2022/07/01 05:42:51;;;;;;;3.95;3.67;;;22.40;79.20;;;;;;4973830;28;20187;-72
2022/07/01 05:45:17;;;;;;;3.38;3.28;;;22.50;79.90;;;;;;4970087;28;20775;-72
2022/07/01 05:47:43;;;;;;;3.97;3.63;;;22.50;79.00;;;;;;4971896;28;20196;-72
2022/07/01 05:50:09;;;;;;;3.03;2.90;;;22.50;78.80;;;;;;4970918;28;21109;-73
2022/07/01 05:52:35;;;;;;;2.78;2.67;;;22.60;79.30;;;;;;4971930;28;20365;-72
2022/07/01 05:55:00;;;;;;;4.32;4.03;;;22.60;79.00;;;;;;4973190;28;20198;-73
2022/07/01 05:57:26;;;;;;;4.03;3.65;;;22.70;79.00;;;;;;4987672;28;20337;-72
2022/07/01 05:59:52;;;;;;;3.72;3.63;;;22.70;78.70;;;;;;5013836;28;20188;-72
2022/07/01 06:02:18;;;;;;;3.95;3.42;;;22.80;79.00;;;;;;5012029;28;20551;-72
2022/07/01 06:04:43;;;;;;;3.38;3.28;;;22.90;78.80;;;;;;5016820;28;20557;-72
2022/07/01 06:07:12;;;;;;;4.13;3.80;;;22.90;78.40;;;;;;5009944;28;20341;-72
2022/07/01 06:09:38;;;;;;;4.57;4.28;;;23.00;78.50;;;;;;5013131;28;20412;-72
2022/07/01 06:12:05;;;;;;;3.47;3.33;;;23.00;78.30;;;;;;5012756;28;20276;-73
2022/07/01 06:14:31;;;;;;;3.58;3.45;;;23.10;78.30;;;;;;5013315;28;20279;-74
2022/07/01 06:16:57;;;;;;;3.80;3.58;;;23.10;78.10;;;;;;5010351;28;20256;-72
2022/07/01 06:19:23;;;;;;;3.63;3.35;;;23.20;78.40;;;;;;5011943;28;20198;-72
2022/07/01 06:21:49;;;;;;;3.97;3.67;;;23.30;78.20;;;;;;5012235;28;20176;-72
2022/07/01 06:24:15;;;;;;;4.07;3.80;;;23.30;78.10;;;;;;5008760;28;20559;-73
2022/07/01 06:26:40;;;;;;;3.58;3.38;;;23.40;77.60;;;;;;5013707;28;20219;-72
2022/07/01 06:29:06;;;;;;;3.83;3.63;;;23.40;77.50;;;;;;5012002;28;20288;-72
2022/07/01 06:31:35;;;;;;;3.67;3.58;;;23.50;77.50;;;;;;5008793;28;20181;-73
2022/07/01 06:34:01;;;;;;;4.03;3.65;;;23.60;77.50;;;;;;5007874;28;20204;-72
2022/07/01 06:36:27;;;;;;;3.95;3.65;;;23.60;76.90;;;;;;5013938;28;20188;-73
2022/07/01 06:38:52;;;;;;;3.53;3.20;;;23.70;76.90;;;;;;5012751;28;20876;-72
2022/07/01 06:41:28;;;;;;;4.45;3.92;;;23.70;77.00;;;;;;5011961;28;20204;-72
2022/07/01 06:43:55;;;;;;;3.30;3.10;;;23.80;77.20;;;;;;5012514;28;20628;-72
2022/07/01 06:46:21;;;;;;;3.65;3.25;;;23.80;77.20;;;;;;5012694;28;20222;-72
2022/07/01 06:48:47;;;;;;;3.88;3.63;;;23.90;77.30;;;;;;5004864;28;20181;-73
2022/07/01 06:51:13;;;;;;;7.90;4.00;;;24.00;77.10;;;;;;5013823;28;20180;-72
2022/07/01 06:53:41;;;;;;;4.32;4.03;;;24.00;76.70;;;;;;5009815;28;20626;-73
2022/07/01 06:56:07;;;;;;;3.40;3.30;;;24.10;75.80;;;;;;5007440;28;20243;-73
2022/07/01 06:58:33;;;;;;;4.75;3.97;;;24.20;76.30;;;;;;5005629;28;20184;-73
2022/07/01 07:00:59;;;;;;;5.05;3.65;;;24.20;76.40;;;;;;5005117;28;20213;-73
2022/07/01 07:03:24;;;;;;;3.33;3.22;;;24.20;76.40;;;;;;4997066;28;20232;-73
2022/07/01 07:05:52;;;;;;;4.22;3.58;;;24.30;76.20;;;;;;5008928;28;20710;-73
2022/07/01 07:08:18;;;;;;;6.45;4.55;;;24.40;76.00;;;;;;4997006;28;20566;-72
2022/07/01 07:10:43;;;;;;;4.65;4.35;;;24.40;76.00;;;;;;5004458;28;20192;-73
2022/07/01 07:13:09;;;;;;;7.63;4.32;;;24.50;75.80;;;;;;5006088;28;20246;-73
2022/07/01 07:15:35;;;;;;;7.65;3.95;;;24.50;76.10;;;;;;5008059;28;20200;-73
2022/07/01 07:18:00;;;;;;;4.15;3.83;;;24.60;75.90;;;;;;5006278;28;20666;-73
2022/07/01 07:20:27;;;;;;;4.07;3.78;;;24.60;75.80;;;;;;5005970;28;20254;-72
2022/07/01 07:22:53;;;;;;;3.47;3.25;;;24.70;75.60;;;;;;5009198;28;20182;-73
2022/07/01 07:25:19;;;;;;;4.50;4.07;;;24.80;75.00;;;;;;5012529;28;20295;-72
2022/07/01 07:27:47;;;;;;;3.75;3.53;;;24.80;74.40;;;;;;5005674;28;20184;-73
2022/07/01 07:30:13;;;;;;;4.60;4.20;;;24.90;74.30;;;;;;5002672;28;20189;-73
2022/07/01 07:32:39;;;;;;;10.90;4.03;;;24.90;75.10;;;;;;5005141;28;20191;-72
2022/07/01 07:35:09;;;;;;;4.63;4.30;;;25.00;75.30;;;;;;5003767;28;20196;-72
2022/07/01 07:37:34;;;;;;;4.03;3.83;;;25.00;75.10;;;;;;5006217;28;20189;-72
2022/07/01 07:40:01;;;;;;;3.78;3.58;;;25.10;74.80;;;;;;5010873;28;20185;-72
2022/07/01 07:42:27;;;;;;;8.20;4.72;;;25.20;74.90;;;;;;5007095;28;20189;-73
2022/07/01 07:44:53;;;;;;;3.97;3.70;;;25.20;74.80;;;;;;5006222;28;20662;-72
2022/07/01 07:47:18;;;;;;;4.55;3.85;;;25.30;73.90;;;;;;5005258;28;20187;-73
2022/07/01 07:49:44;;;;;;;4.28;3.78;;;25.40;73.80;;;;;;5009681;28;20177;-72
2022/07/01 07:52:10;;;;;;;4.28;3.75;;;25.40;74.30;;;;;;5010570;28;20241;-73
2022/07/01 07:54:36;;;;;;;3.80;3.50;;;25.50;74.70;;;;;;5008304;28;20263;-72
2022/07/01 07:57:01;;;;;;;3.92;3.35;;;25.60;74.40;;;;;;5003151;28;20655;-73
2022/07/01 07:59:27;;;;;;;3.53;3.38;;;25.70;74.70;;;;;;5005907;28;20185;-73
2022/07/01 08:01:53;;;;;;;4.70;4.32;;;25.70;74.40;;;;;;5003175;28;20753;-73
2022/07/01 08:04:18;;;;;;;4.80;3.65;;;25.80;74.10;;;;;;5002565;28;20220;-73
2022/07/01 08:06:44;;;;;;;5.35;3.70;;;25.80;74.10;;;;;;5008615;28;20473;-72
2022/07/01 08:09:09;;;;;;;8.23;4.35;;;25.90;73.40;;;;;;5007612;28;20184;-72
2022/07/01 08:11:35;;;;;;;7.93;4.00;;;25.90;73.40;;;;;;5020040;28;20195;-72
2022/07/01 08:14:01;;;;;;;4.30;4.00;;;26.00;72.60;;;;;;5005473;28;20185;-72
2022/07/01 08:16:27;;;;;;;4.93;3.88;;;26.10;72.90;;;;;;5001666;28;20270;-72
2022/07/01 08:18:53;;;;;;;4.78;4.05;;;26.20;72.80;;;;;;4998098;28;20199;-73
2022/07/01 08:21:19;;;;;;;3.22;3.03;;;26.20;72.00;;;;;;5005956;28;20548;-73
2022/07/01 08:23:45;;;;;;;4.95;3.92;;;26.30;72.20;;;;;;5001155;28;20185;-72
2022/07/01 08:26:14;;;;;;;6.65;4.00;;;26.30;71.90;;;;;;5001971;28;20706;-72
2022/07/01 08:28:41;;;;;;;8.02;4.10;;;26.40;71.70;;;;;;5004816;28;20259;-72
2022/07/01 08:31:07;;;;;;;4.10;3.75;;;26.40;71.80;;;;;;5000269;28;20272;-72
2022/07/01 08:33:32;;;;;;;4.35;4.05;;;26.50;72.50;;;;;;4997263;28;20629;-73
2022/07/01 08:35:58;;;;;;;4.97;4.45;;;26.50;72.20;;;;;;4995979;28;20371;-73
2022/07/01 08:38:24;;;;;;;3.75;3.58;;;26.60;72.30;;;;;;4998929;28;20740;-72
2022/07/01 08:40:50;;;;;;;4.22;3.90;;;26.70;72.40;;;;;;5003047;28;20266;-74
2022/07/01 08:43:15;;;;;;;3.58;3.38;;;26.80;72.50;;;;;;5005017;28;20200;-73
2022/07/01 08:45:42;;;;;;;4.47;4.13;;;26.80;72.10;;;;;;5002106;28;20605;-74
2022/07/01 08:48:08;;;;;;;4.07;3.78;;;26.90;71.20;;;;;;5009072;28;20250;-74
2022/07/01 08:50:38;;;;;;;3.72;3.53;;;27.00;71.50;;;;;;5011201;28;20609;-73
2022/07/01 08:53:05;;;;;;;3.80;3.50;;;27.10;71.50;;;;;;5009392;28;20569;-74
2022/07/01 08:55:31;;;;;;;4.50;4.07;;;27.20;71.00;;;;;;5009203;28;20197;-74
2022/07/01 08:57:57;;;;;;;5.15;4.00;;;27.30;70.30;;;;;;5013782;28;20195;-74
2022/07/01 09:00:33;;;;;;;3.25;3.05;;;27.40;69.30;;;;;;5009106;28;20224;-75
2022/07/01 09:03:01;;;;;;;3.85;3.72;;;27.50;69.40;;;;;;5006886;28;20641;-74
2022/07/01 09:05:29;;;;;;;3.25;3.05;;;27.60;68.90;;;;;;5011103;28;20267;-74
2022/07/01 09:08:03;;;;;;;3.40;3.20;;;27.60;69.60;;;;;;5011341;28;20184;-73
2022/07/01 09:10:39;;;;;;;3.00;2.90;;;27.70;69.10;;;;;;5003818;28;20670;-74
2022/07/01 09:13:09;;;;;;;5.00;3.83;;;27.80;69.70;;;;;;5009112;28;20731;-73
2022/07/01 09:15:35;;;;;;;3.47;3.20;;;28.00;68.80;;;;;;5008973;28;20181;-75
2022/07/01 09:18:16;;;;;;;2.95;2.80;;;28.10;68.70;;;;;;5008212;28;20192;-74
2022/07/01 09:20:51;;;;;;;4.55;3.35;;;28.20;68.50;;;;;;5009355;28;20583;-74
2022/07/01 09:23:20;;;;;;;3.28;3.08;;;28.30;67.90;;;;;;5009659;28;20195;-73
2022/07/01 09:25:48;;;;;;;2.90;2.80;;;28.50;67.50;;;;;;5001168;28;20212;-73
2022/07/01 09:28:18;;;;;;;3.38;2.92;;;28.60;67.30;;;;;;5008562;28;20219;-74
2022/07/01 09:30:51;;;;;;;3.45;2.88;;;28.70;67.60;;;;;;5011571;28;20184;-73
2022/07/01 09:33:22;;;;;;;3.40;3.10;;;28.80;67.40;;;;;;5008575;28;20192;-74
2022/07/01 09:35:50;;;;;;;2.13;2.10;;;28.90;64.00;;;;;;5003853;28;20203;-74
2022/07/01 09:38:18;;;;;;;2.30;2.30;;;28.90;61.30;;;;;;5005513;28;20332;-73
2022/07/01 09:41:06;;;;;;;1.77;1.77;;;29.00;63.60;;;;;;5015198;28;20265;-73
2022/07/01 09:43:34;;;;;;;2.40;2.30;;;29.10;63.90;;;;;;5011958;28;20187;-75
2022/07/01 09:46:09;;;;;;;2.38;2.28;;;29.20;64.70;;;;;;5011487;28;20464;-74
2022/07/01 09:48:35;;;;;;;2.10;2.00;;;29.30;64.00;;;;;;5010069;28;20188;-73
2022/07/01 09:51:02;;;;;;;2.50;2.40;;;29.40;62.90;;;;;;5007599;28;20181;-74
2022/07/01 09:53:28;;;;;;;2.72;2.63;;;29.50;63.50;;;;;;5009338;28;20183;-74
2022/07/01 09:55:54;;;;;;;2.70;2.67;;;29.60;64.20;;;;;;5007145;28;20184;-73
2022/07/01 09:58:20;;;;;;;2.95;2.72;;;29.80;64.70;;;;;;5011529;28;20176;-74
2022/07/01 10:00:46;;;;;;;4.70;3.03;;;29.90;64.40;;;;;;5009897;28;20192;-74
2022/07/01 10:03:13;;;;;;;3.17;2.65;;;30.00;64.10;;;;;;5012706;28;20257;-74
2022/07/01 10:05:39;;;;;;;2.92;2.70;;;30.10;63.90;;;;;;5013811;28;20676;-74
2022/07/01 10:08:25;;;;;;;2.55;2.55;;;30.20;63.60;;;;;;5005134;28;20219;-73
2022/07/01 10:11:21;;;;;;;3.00;2.90;;;30.40;59.40;;;;;;5009593;28;20700;-75
2022/07/01 10:13:47;;;;;;;2.58;2.50;;;30.60;59.00;;;;;;5012007;28;20203;-74
2022/07/01 10:16:14;;;;;;;2.83;2.25;;;30.60;58.80;;;;;;5010000;28;20193;-75
2022/07/01 10:18:40;;;;;;;2.92;2.92;;;30.70;60.70;;;;;;5009598;28;20528;-74
2022/07/01 10:21:06;;;;;;;2.58;2.47;;;30.80;59.40;;;;;;5009769;28;20200;-75
2022/07/01 10:23:42;;;;;;;2.67;2.58;;;30.90;59.10;;;;;;5009029;28;20181;-78
2022/07/01 10:26:10;;;;;;;2.60;2.40;;;31.10;57.00;;;;;;5006107;28;20298;-73
2022/07/01 10:28:42;;;;;;;2.67;2.58;;;31.20;56.70;;;;;;5010323;28;20538;-74
2022/07/01 10:31:19;;;;;;;3.15;2.95;;;31.50;55.80;;;;;;5013204;28;20188;-74
2022/07/01 10:33:59;;;;;;;2.75;2.55;;;31.70;55.80;;;;;;5006694;28;20189;-74
2022/07/01 10:36:33;;;;;;;2.80;2.63;;;32.00;54.70;;;;;;5007833;28;20491;-75
2022/07/01 10:39:07;;;;;;;3.22;2.80;;;32.30;53.50;;;;;;5009986;28;20177;-74
2022/07/01 10:41:40;;;;;;;2.60;2.35;;;32.80;52.30;;;;;;5010192;28;20554;-73
2022/07/01 10:44:08;;;;;;;2.80;2.50;;;33.00;53.50;;;;;;5012692;28;20567;-74
2022/07/01 10:46:56;;;;;;;2.95;2.85;;;33.30;53.90;;;;;;5011695;28;20298;-74
2022/07/01 10:49:38;;;;;;;2.65;2.58;;;33.70;52.00;;;;;;5010680;28;20705;-74
2022/07/01 10:52:18;;;;;;;3.40;2.97;;;34.20;51.70;;;;;;5008532;28;20176;-74
2022/07/01 10:54:47;;;;;;;3.20;3.10;;;34.70;51.00;;;;;;5010757;28;20577;-74
2022/07/01 10:57:19;;;;;;;3.25;3.00;;;35.20;50.50;;;;;;5008291;28;20187;-74
2022/07/01 10:59:48;;;;;;;3.40;3.03;;;35.80;50.40;;;;;;5004852;28;20187;-74
2022/07/01 11:02:33;;;;;;;4.95;3.85;;;36.30;49.00;;;;;;5006089;28;20184;-73
2022/07/01 11:05:00;;;;;;;3.83;3.38;;;36.80;49.10;;;;;;5006639;28;20181;-74
2022/07/01 11:07:45;;;;;;;3.90;3.53;;;37.40;48.10;;;;;;5007542;28;20239;-74
2022/07/01 11:10:14;;;;;;;2.97;2.78;;;38.00;46.30;;;;;;5013663;28;20179;-73
2022/07/01 11:12:41;;;;;;;3.35;3.25;;;38.40;46.00;;;;;;5003632;28;20211;-73
2022/07/01 11:15:07;;;;;;;2.97;2.80;;;38.80;43.80;;;;;;5004659;28;21748;-76
2022/07/01 11:17:34;;;;;;;2.42;2.40;;;39.10;45.00;;;;;;5002487;28;20669;-73
2022/07/01 11:20:03;;;;;;;3.17;2.90;;;39.50;43.10;;;;;;5005032;28;20594;-73
2022/07/01 11:22:34;;;;;;;3.28;3.08;;;39.80;45.20;;;;;;5008196;28;20184;-72
2022/07/01 11:25:03;;;;;;;3.10;3.00;;;39.80;41.90;;;;;;5009646;28;20180;-72
2022/07/01 11:27:29;;;;;;;3.25;2.88;;;39.90;43.70;;;;;;5009519;28;20655;-73
2022/07/01 11:29:57;;;;;;;2.80;2.60;;;40.10;44.20;;;;;;5000460;28;20219;-73
2022/07/01 11:32:37;;;;;;;2.88;2.83;;;40.10;43.90;;;;;;4988137;28;20188;-73
2022/07/01 11:39:21;;;;;;;4.47;2.50;;;40.10;43.80;;;;;;4987718;28;20257;-73
2022/07/01 11:40:35;;;;;;;3.28;3.08;;;40.10;43.80;;;;;;5000421;28;20191;-72
2022/07/01 11:43:00;;;;;;;2.75;2.75;;;40.10;43.50;;;;;;4998799;28;20180;-72
2022/07/01 11:45:26;;;;;;;2.58;2.47;;;39.90;43.10;;;;;;4996388;28;20247;-73
2022/07/01 11:47:53;;;;;;;2.95;2.72;;;40.00;43.20;;;;;;5002487;28;20180;-74
2022/07/01 11:50:19;;;;;;;2.70;2.60;;;40.20;43.50;;;;;;5001545;28;20188;-72
2022/07/01 11:52:46;;;;;;;3.20;2.17;;;40.50;43.30;;;;;;5002982;28;20726;-72
2022/07/01 11:55:12;;;;;;;2.42;2.42;;;40.90;42.80;;;;;;4998802;28;20212;-72
2022/07/01 11:57:38;;;;;;;2.40;2.28;;;41.20;42.60;;;;;;5000950;28;20207;-72
2022/07/01 12:00:12;;;;;;;2.63;2.50;;;41.50;42.70;;;;;;5001621;28;20180;-72
2022/07/01 12:02:38;;;;;;;2.65;2.45;;;41.90;41.60;;;;;;4991375;28;20549;-73
2022/07/01 12:05:05;;;;;;;3.45;2.38;;;42.10;44.90;;;;;;5003094;28;20188;-73
2022/07/01 12:07:37;;;;;;;2.55;2.53;;;42.20;42.40;;;;;;5001460;28;20188;-73
2022/07/01 12:10:03;;;;;;;3.30;2.88;;;42.40;41.60;;;;;;5001527;28;20192;-73
2022/07/01 12:12:29;;;;;;;2.80;2.75;;;42.60;41.00;;;;;;5002559;28;20243;-73
2022/07/01 12:14:56;;;;;;;2.38;2.38;;;42.60;44.50;;;;;;4998647;28;20272;-73
2022/07/01 12:17:24;;;;;;;1.92;1.83;;;42.70;40.20;;;;;;4997835;28;20192;-74
2022/07/01 12:19:52;;;;;;;3.22;2.47;;;42.80;42.10;;;;;;5000446;28;20668;-72
2022/07/01 12:22:26;;;;;;;2.45;2.35;;;42.50;41.50;;;;;;5001598;28;20188;-73
2022/07/01 12:25:04;;;;;;;2.70;2.45;;;42.10;44.00;;;;;;4999405;28;20654;-72
2022/07/01 12:27:33;;;;;;;2.63;2.58;;;41.40;43.80;;;;;;5000959;28;20194;-73
2022/07/01 12:29:59;;;;;;;2.15;2.15;;;41.00;43.30;;;;;;5002440;28;20182;-73
2022/07/01 12:32:27;;;;;;;2.13;2.13;;;40.60;41.90;;;;;;5002358;28;20837;-73
2022/07/01 12:34:57;;;;;;;2.03;2.03;;;40.00;45.40;;;;;;5002551;28;20223;-71
2022/07/01 12:37:32;;;;;;;5.00;2.55;;;39.40;42.10;;;;;;5002461;28;20230;-73
2022/07/01 12:40:03;;;;;;;1.92;1.92;;;39.00;44.20;;;;;;5002434;28;20187;-72
2022/07/01 12:42:42;;;;;;;2.72;2.60;;;38.40;45.00;;;;;;4999160;28;20207;-73
2022/07/01 12:45:12;;;;;;;2.35;2.22;;;37.90;46.00;;;;;;5002641;28;20271;-73
2022/07/01 12:47:42;;;;;;;4.22;2.13;;;37.50;44.40;;;;;;5002415;28;20176;-72
2022/07/01 12:50:21;;;;;;;2.20;2.15;;;37.60;44.50;;;;;;4995480;28;20223;-72
2022/07/01 12:53:06;;;;;;;5.80;2.10;;;38.00;44.60;;;;;;4993059;28;20172;-72
2022/07/01 12:55:35;;;;;;;1.80;1.80;;;38.60;43.70;;;;;;5002613;28;20246;-73
2022/07/01 12:58:02;;;;;;;2.03;2.03;;;39.20;45.40;;;;;;5001923;28;20748;-74
2022/07/01 13:00:30;;;;;;;2.53;2.00;;;39.90;43.90;;;;;;5004293;28;20662;-72
2022/07/01 13:02:59;;;;;;;1.85;1.85;;;40.60;44.10;;;;;;4999546;28;20181;-72
2022/07/01 13:05:25;;;;;;;2.08;1.95;;;41.30;43.90;;;;;;5005041;28;20212;-72